Time;durP1;ratioP1;P1;durP2;ratioP2;P2;SDS_P1;SDS_P2;PMS_P1;PMS_P2;Temp;Humidity;BMP_temperature;BMP_pressure;BME280_temperature;BME280_humidity;BME280_pressure;Samples;Min_cycle;Max_cycle;Signal;HPM_P1;HPM_P2
2023/03/13 05:01:23;;;;;;;0.70;0.70;;;6.90;99.90;;;;;;5483069;23;20296;-68
2023/03/13 05:03:50;;;;;;;5.28;2.08;;;6.90;99.90;;;;;;4929814;29;20225;-67
2023/03/13 05:06:17;;;;;;;0.20;0.20;;;6.90;99.90;;;;;;4932401;29;20333;-67
2023/03/13 05:08:44;;;;;;;1.25;0.85;;;6.80;99.90;;;;;;4929287;29;20214;-67
2023/03/13 05:11:11;;;;;;;2.45;1.63;;;6.90;99.90;;;;;;4923303;29;20230;-67
2023/03/13 05:13:38;;;;;;;0.95;0.95;;;6.90;99.90;;;;;;4903207;29;20234;-67
2023/03/13 05:16:05;;;;;;;1.10;1.00;;;6.90;99.90;;;;;;4909623;29;20306;-71
2023/03/13 05:18:34;;;;;;;2.40;2.20;;;6.90;99.90;;;;;;4934792;23;20221;-68
2023/03/13 05:21:01;;;;;;;8.25;0.70;;;6.90;99.90;;;;;;4951004;28;20268;-69
2023/03/13 05:23:28;;;;;;;0.85;0.43;;;6.90;99.90;;;;;;4941847;29;20212;-69
2023/03/13 05:25:54;;;;;;;8.50;1.95;;;6.90;99.90;;;;;;4947068;28;20210;-70
2023/03/13 05:28:21;;;;;;;36.72;2.70;;;6.90;99.90;;;;;;4946713;29;20233;-69
2023/03/13 05:30:48;;;;;;;0.45;0.45;;;6.90;99.90;;;;;;4929510;28;20217;-70
2023/03/13 05:33:14;;;;;;;0.93;0.93;;;6.90;99.90;;;;;;4932163;28;20274;-69
2023/03/13 05:35:43;;;;;;;4.30;0.50;;;6.90;99.90;;;;;;4923772;29;20222;-69
2023/03/13 05:38:09;;;;;;;6.25;0.77;;;6.90;99.90;;;;;;4932184;29;20263;-70
2023/03/13 05:40:36;;;;;;;2.33;2.22;;;6.90;99.90;;;;;;4940841;29;20229;-70
2023/03/13 05:43:03;;;;;;;3.55;1.50;;;7.00;99.90;;;;;;4933714;28;20260;-70
2023/03/13 05:45:30;;;;;;;3.00;1.70;;;7.00;99.90;;;;;;4925345;29;20585;-70
2023/03/13 05:47:57;;;;;;;0.20;0.20;;;7.00;99.90;;;;;;4928627;29;20209;-71
2023/03/13 05:50:25;;;;;;;1.52;1.52;;;7.00;99.90;;;;;;4936097;29;20206;-70
2023/03/13 05:52:53;;;;;;;2.45;1.67;;;7.00;99.90;;;;;;4930826;29;20289;-70
2023/03/13 05:55:20;;;;;;;0.20;0.20;;;7.00;99.90;;;;;;4948774;28;20236;-70
2023/03/13 05:57:47;;;;;;;1.25;1.15;;;7.10;99.90;;;;;;4937679;28;20570;-71
2023/03/13 06:00:15;;;;;;;1.48;1.48;;;7.00;99.90;;;;;;4931184;28;20220;-70
2023/03/13 06:02:42;;;;;;;0.73;0.73;;;7.10;99.90;;;;;;4930851;29;20562;-70
2023/03/13 06:05:10;;;;;;;3.30;0.98;;;7.10;99.90;;;;;;4932197;29;20205;-70
2023/03/13 06:07:37;;;;;;;0.40;0.40;;;7.20;99.90;;;;;;4942273;29;20245;-70
2023/03/13 06:10:06;;;;;;;1.00;0.95;;;7.20;99.90;;;;;;4942611;28;20773;-69
2023/03/13 06:12:32;;;;;;;1.88;1.77;;;7.20;99.90;;;;;;4938370;29;20300;-68
2023/03/13 06:14:59;;;;;;;0.65;0.65;;;7.20;99.90;;;;;;4927852;29;20205;-69
2023/03/13 06:17:26;;;;;;;3.72;1.45;;;7.30;99.90;;;;;;4939234;29;20220;-70
2023/03/13 06:19:52;;;;;;;0.77;0.75;;;7.30;99.90;;;;;;4943796;28;20246;-70
2023/03/13 06:22:19;;;;;;;1.75;0.98;;;7.30;99.90;;;;;;4938074;29;20229;-70
2023/03/13 06:24:48;;;;;;;1.85;1.85;;;7.40;99.90;;;;;;4934034;29;20220;-70
2023/03/13 06:27:16;;;;;;;2.20;1.55;;;7.40;99.90;;;;;;4937655;29;20220;-72
2023/03/13 06:29:43;;;;;;;0.40;0.40;;;7.40;99.90;;;;;;4923210;29;20238;-71
2023/03/13 06:32:09;;;;;;;3.22;0.60;;;7.40;99.90;;;;;;4934268;29;20602;-69
2023/03/13 06:34:36;;;;;;;15.20;8.90;;;7.50;99.90;;;;;;4934458;29;20292;-69
2023/03/13 06:37:03;;;;;;;11.80;7.22;;;7.60;99.90;;;;;;4930404;28;20224;-69
2023/03/13 06:39:30;;;;;;;12.63;7.22;;;7.60;99.90;;;;;;4936228;29;20260;-69
2023/03/13 06:41:57;;;;;;;11.57;5.03;;;7.70;99.90;;;;;;4924884;29;20222;-69
2023/03/13 06:44:25;;;;;;;6.28;4.28;;;7.70;99.90;;;;;;4926821;29;20206;-68
2023/03/13 06:46:52;;;;;;;6.80;4.97;;;7.60;99.90;;;;;;4920972;29;20210;-69
2023/03/13 06:49:19;;;;;;;16.67;8.63;;;7.70;99.90;;;;;;4927107;29;20225;-69
2023/03/13 06:51:45;;;;;;;7.03;6.40;;;7.70;99.90;;;;;;4943259;29;20911;-70
2023/03/13 06:54:12;;;;;;;6.53;3.55;;;7.70;99.90;;;;;;4938869;28;20296;-69
2023/03/13 06:56:39;;;;;;;4.55;2.33;;;7.80;99.90;;;;;;4923137;29;20206;-69
2023/03/13 06:59:05;;;;;;;1.52;1.40;;;7.80;99.90;;;;;;4928881;28;20233;-69
2023/03/13 07:01:33;;;;;;;2.72;2.60;;;7.80;99.90;;;;;;4920568;29;20218;-69
2023/03/13 07:04:00;;;;;;;5.47;5.00;;;7.90;99.90;;;;;;4922134;29;20655;-69
2023/03/13 07:06:27;;;;;;;3.55;3.33;;;7.90;99.90;;;;;;4917361;29;20690;-69
2023/03/13 07:08:54;;;;;;;8.23;4.13;;;8.00;99.90;;;;;;4931435;28;20222;-68
2023/03/13 07:11:20;;;;;;;10.85;2.70;;;8.00;99.90;;;;;;4938530;29;20709;-68
2023/03/13 07:13:47;;;;;;;1.90;1.80;;;8.00;99.90;;;;;;4922668;28;20206;-69
2023/03/13 07:16:14;;;;;;;6.47;4.93;;;8.10;99.90;;;;;;4919715;29;20238;-69
2023/03/13 07:18:43;;;;;;;2.45;2.35;;;8.10;99.90;;;;;;4933026;29;20237;-66
2023/03/13 07:21:10;;;;;;;0.93;0.93;;;8.10;99.90;;;;;;4919101;29;20207;-69
2023/03/13 07:23:37;;;;;;;1.50;1.45;;;8.10;99.90;;;;;;4920248;29;20229;-67
2023/03/13 07:26:06;;;;;;;1.20;0.90;;;8.20;99.90;;;;;;4929517;29;20212;-68
2023/03/13 07:28:33;;;;;;;1.52;1.52;;;8.20;99.90;;;;;;4940852;29;20232;-68
2023/03/13 07:31:05;;;;;;;18.42;1.38;;;8.20;99.90;;;;;;4929137;28;20239;-68
2023/03/13 07:33:32;;;;;;;1.00;0.88;;;8.20;99.90;;;;;;4931939;29;20592;-68
2023/03/13 07:36:00;;;;;;;1.65;1.55;;;8.20;99.90;;;;;;4919481;29;20225;-69
2023/03/13 07:38:27;;;;;;;0.88;0.88;;;8.20;99.90;;;;;;4936263;29;20242;-69
2023/03/13 07:40:56;;;;;;;1.00;1.00;;;8.30;99.90;;;;;;4929289;29;20214;-68
2023/03/13 07:43:23;;;;;;;1.10;1.10;;;8.30;99.90;;;;;;4931511;29;20238;-68
2023/03/13 07:45:55;;;;;;;1.13;1.13;;;8.30;99.90;;;;;;4925266;29;20218;-66
2023/03/13 07:48:23;;;;;;;0.73;0.73;;;8.30;99.90;;;;;;4941370;29;20251;-67
2023/03/13 07:50:50;;;;;;;0.90;0.90;;;8.40;99.90;;;;;;4916805;29;20478;-66
2023/03/13 07:53:20;;;;;;;5.05;1.05;;;8.40;99.90;;;;;;4947087;29;20208;-69
2023/03/13 07:55:53;;;;;;;3.40;1.45;;;8.40;99.90;;;;;;4934589;28;20212;-68
2023/03/13 07:58:20;;;;;;;0.93;0.93;;;8.40;99.90;;;;;;4924496;29;20701;-68
2023/03/13 08:00:46;;;;;;;1.85;0.73;;;8.50;99.90;;;;;;4936723;29;20335;-67
2023/03/13 08:03:13;;;;;;;1.85;1.75;;;8.50;99.90;;;;;;4938913;29;20235;-68
2023/03/13 08:05:40;;;;;;;5.13;1.85;;;8.50;99.90;;;;;;4934946;29;20213;-68
2023/03/13 08:08:06;;;;;;;0.43;0.43;;;8.50;99.90;;;;;;4944211;28;20203;-67
2023/03/13 08:10:34;;;;;;;0.77;0.77;;;8.50;99.90;;;;;;4927154;29;20217;-67
2023/03/13 08:13:01;;;;;;;1.13;1.05;;;8.60;99.90;;;;;;4931450;29;20206;-67
2023/03/13 08:15:28;;;;;;;1.45;1.35;;;8.60;99.90;;;;;;4923320;28;20660;-68
2023/03/13 08:17:54;;;;;;;1.40;1.30;;;8.60;99.90;;;;;;4925655;29;20206;-68
2023/03/13 08:20:21;;;;;;;0.90;0.90;;;8.70;99.90;;;;;;4931367;29;20215;-68
2023/03/13 08:22:49;;;;;;;1.50;1.40;;;8.70;99.90;;;;;;4925848;29;20245;-69
2023/03/13 08:25:16;;;;;;;0.40;0.40;;;8.70;99.90;;;;;;4928142;29;20225;-67
2023/03/13 08:27:44;;;;;;;1.27;0.90;;;8.80;99.90;;;;;;4927540;29;20581;-67
2023/03/13 08:30:12;;;;;;;1.30;1.30;;;8.80;99.90;;;;;;4923397;29;20253;-67
2023/03/13 08:32:39;;;;;;;0.63;0.60;;;8.80;99.90;;;;;;4934683;29;20206;-68
2023/03/13 08:35:06;;;;;;;1.55;1.50;;;8.90;99.90;;;;;;4935948;28;20213;-67
2023/03/13 08:37:33;;;;;;;1.52;1.52;;;8.90;99.90;;;;;;4935711;29;20209;-68
2023/03/13 08:40:00;;;;;;;2.47;2.38;;;9.00;99.90;;;;;;4938593;29;20600;-69
2023/03/13 08:42:26;;;;;;;0.73;0.70;;;9.10;99.90;;;;;;4933327;29;20237;-70
2023/03/13 08:44:55;;;;;;;1.42;1.33;;;9.20;99.90;;;;;;4945861;28;20209;-70
2023/03/13 08:47:21;;;;;;;1.15;1.05;;;9.20;99.90;;;;;;4916140;29;20553;-70
2023/03/13 08:49:48;;;;;;;3.75;2.55;;;9.30;99.90;;;;;;4924290;29;20229;-69
2023/03/13 08:52:15;;;;;;;2.08;1.98;;;9.40;99.90;;;;;;4928028;29;20215;-70
2023/03/13 08:54:42;;;;;;;1.67;1.58;;;9.50;99.90;;;;;;4924491;29;20296;-70
2023/03/13 08:57:08;;;;;;;3.20;2.90;;;9.60;99.90;;;;;;4943906;29;20214;-70
2023/03/13 08:59:35;;;;;;;2.10;1.90;;;9.70;99.90;;;;;;4932133;29;20253;-68
2023/03/13 09:02:03;;;;;;;1.38;0.80;;;9.70;99.90;;;;;;4934110;29;20554;-70
2023/03/13 09:04:30;;;;;;;2.67;2.35;;;9.90;99.90;;;;;;4929845;29;20202;-69
2023/03/13 09:06:57;;;;;;;1.27;1.27;;;9.90;99.90;;;;;;4927182;28;20214;-69
2023/03/13 09:09:23;;;;;;;4.15;1.60;;;10.10;99.90;;;;;;4930396;29;20234;-68
2023/03/13 09:11:50;;;;;;;1.67;1.10;;;10.20;99.90;;;;;;4933846;29;20211;-67
2023/03/13 09:14:17;;;;;;;2.13;2.03;;;10.20;99.90;;;;;;4922519;29;20218;-69
2023/03/13 09:16:45;;;;;;;7.10;1.85;;;10.30;99.90;;;;;;4920990;29;20218;-69
2023/03/13 09:19:13;;;;;;;4.30;1.88;;;10.40;99.90;;;;;;4930613;29;20242;-69
2023/03/13 09:21:39;;;;;;;7.05;1.80;;;10.50;99.90;;;;;;4933651;29;20624;-69
2023/03/13 09:24:07;;;;;;;2.10;2.00;;;10.60;99.90;;;;;;4938385;29;20277;-69
2023/03/13 09:26:34;;;;;;;2.42;2.22;;;10.60;99.90;;;;;;4933799;28;20206;-69
2023/03/13 09:29:00;;;;;;;2.05;1.92;;;10.70;99.90;;;;;;4932615;29;20969;-69
2023/03/13 09:31:29;;;;;;;1.23;1.23;;;10.70;99.90;;;;;;4932500;29;20217;-69
2023/03/13 09:33:56;;;;;;;1.42;1.33;;;10.80;99.90;;;;;;4930291;29;20241;-69
2023/03/13 09:36:24;;;;;;;1.20;1.10;;;10.80;99.90;;;;;;4929670;29;20233;-69
2023/03/13 09:38:52;;;;;;;2.10;2.00;;;10.90;99.90;;;;;;4931923;29;20618;-69
2023/03/13 09:41:30;;;;;;;2.37;2.13;;;10.90;99.90;;;;;;4928138;29;20213;-69
2023/03/13 09:44:01;;;;;;;1.83;1.70;;;11.00;99.90;;;;;;4932017;29;20485;-71
2023/03/13 09:46:35;;;;;;;1.95;1.25;;;11.00;99.90;;;;;;4929625;29;20476;-69
2023/03/13 09:49:08;;;;;;;5.18;2.97;;;11.00;99.90;;;;;;4925064;29;20238;-70
2023/03/13 09:51:40;;;;;;;2.43;2.23;;;11.10;99.90;;;;;;4930897;29;20678;-69
2023/03/13 09:54:08;;;;;;;1.93;1.93;;;11.10;99.90;;;;;;4931875;29;20465;-70
2023/03/13 09:56:40;;;;;;;2.80;2.60;;;11.10;99.90;;;;;;4932108;29;20479;-68
2023/03/13 09:59:16;;;;;;;3.08;2.45;;;11.10;99.90;;;;;;4935761;29;20501;-69
2023/03/13 10:01:45;;;;;;;4.90;2.00;;;11.20;99.90;;;;;;4924740;29;20214;-69
2023/03/13 10:04:32;;;;;;;6.93;4.20;;;11.30;99.90;;;;;;4914568;29;20490;-70
2023/03/13 10:07:02;;;;;;;3.13;2.93;;;11.30;99.90;;;;;;4927130;29;20234;-69
2023/03/13 10:09:30;;;;;;;3.15;2.97;;;11.30;99.90;;;;;;4932906;29;20502;-69
2023/03/13 10:12:05;;;;;;;4.93;3.50;;;11.40;99.90;;;;;;4938310;28;20293;-69
2023/03/13 10:14:41;;;;;;;2.63;1.90;;;11.50;99.90;;;;;;4927934;29;20826;-69
2023/03/13 10:17:19;;;;;;;3.50;2.53;;;11.70;99.90;;;;;;4922489;29;20496;-69
2023/03/13 10:19:54;;;;;;;4.13;3.83;;;11.80;99.90;;;;;;4918355;29;20541;-68
2023/03/13 10:22:26;;;;;;;4.57;4.17;;;12.00;99.90;;;;;;4931757;29;20873;-69
2023/03/13 10:24:58;;;;;;;3.43;3.13;;;12.10;99.90;;;;;;4923527;28;20465;-68
2023/03/13 10:27:24;;;;;;;2.33;2.23;;;12.20;99.90;;;;;;4932588;29;20836;-68
2023/03/13 10:29:51;;;;;;;4.00;3.60;;;12.20;99.90;;;;;;4936005;29;20484;-67
2023/03/13 10:32:19;;;;;;;2.73;2.53;;;12.20;99.90;;;;;;4922660;28;20482;-68
2023/03/13 10:34:52;;;;;;;3.37;3.07;;;12.20;99.90;;;;;;4916496;29;20473;-68
2023/03/13 10:37:24;;;;;;;1.83;1.80;;;12.10;99.90;;;;;;4935439;29;20468;-68
2023/03/13 10:39:51;;;;;;;6.63;2.63;;;12.10;99.90;;;;;;4932881;28;20489;-68
2023/03/13 10:42:23;;;;;;;2.63;2.47;;;12.20;99.90;;;;;;4924137;29;20466;-67
2023/03/13 10:44:53;;;;;;;3.67;3.37;;;12.30;99.90;;;;;;4927578;29;20495;-68
2023/03/13 10:47:20;;;;;;;3.37;2.83;;;12.40;99.90;;;;;;4928548;29;20477;-68
2023/03/13 10:49:49;;;;;;;3.80;3.47;;;12.40;99.90;;;;;;4931153;29;20489;-70
2023/03/13 10:52:31;;;;;;;3.87;3.57;;;12.50;99.90;;;;;;4933581;29;20474;-68
2023/03/13 10:55:01;;;;;;;2.43;2.33;;;12.50;99.90;;;;;;4938374;29;20464;-68
2023/03/13 10:57:30;;;;;;;2.70;2.50;;;12.60;99.90;;;;;;4929702;29;20474;-68
2023/03/13 10:59:58;;;;;;;2.73;2.53;;;12.70;99.90;;;;;;4934279;28;20602;-70
2023/03/13 11:02:28;;;;;;;3.50;3.30;;;12.80;99.90;;;;;;4939870;29;20476;-68
2023/03/13 11:04:56;;;;;;;2.17;2.07;;;12.90;99.90;;;;;;4925693;29;20500;-67
2023/03/13 11:07:29;;;;;;;3.03;2.80;;;13.00;99.90;;;;;;4928007;29;20510;-70
2023/03/13 11:10:01;;;;;;;2.30;2.20;;;13.10;99.90;;;;;;4929540;29;20505;-67
2023/03/13 11:12:33;;;;;;;2.60;2.00;;;13.10;99.90;;;;;;4923890;29;20891;-68
2023/03/13 11:15:00;;;;;;;3.43;2.83;;;13.20;99.90;;;;;;4941421;28;20453;-68
2023/03/13 11:17:33;;;;;;;2.63;2.50;;;13.30;99.90;;;;;;4923503;29;20500;-69
2023/03/13 11:20:14;;;;;;;3.07;2.97;;;13.40;99.90;;;;;;4943406;23;20494;-68
2023/03/13 11:23:03;;;;;;;2.97;2.77;;;13.50;99.90;;;;;;4938600;29;20457;-68
2023/03/13 11:25:39;;;;;;;5.00;2.97;;;13.60;99.90;;;;;;4936446;29;20469;-67
2023/03/13 11:28:28;;;;;;;3.00;2.80;;;13.70;99.90;;;;;;4934336;29;20473;-67
2023/03/13 11:31:05;;;;;;;3.27;2.77;;;13.90;99.90;;;;;;4926893;29;20867;-67
2023/03/13 11:33:42;;;;;;;4.83;2.80;;;13.90;99.90;;;;;;4906794;29;21009;-68
2023/03/13 11:36:18;;;;;;;2.03;1.83;;;14.00;99.90;;;;;;4914905;29;20474;-68
2023/03/13 11:38:52;;;;;;;2.73;2.63;;;14.20;99.90;;;;;;4927844;29;20553;-68
2023/03/13 11:41:39;;;;;;;2.70;2.60;;;14.20;99.90;;;;;;4912677;29;20493;-68
2023/03/13 11:44:28;;;;;;;2.93;2.73;;;14.10;99.90;;;;;;4908380;29;20462;-67
2023/03/13 11:47:05;;;;;;;3.40;3.13;;;14.10;99.90;;;;;;4907969;29;20479;-68
2023/03/13 11:49:51;;;;;;;3.53;2.10;;;14.00;99.90;;;;;;4907283;29;20863;-67
2023/03/13 11:52:31;;;;;;;3.20;2.90;;;14.00;99.90;;;;;;4912113;29;20466;-67
2023/03/13 11:55:12;;;;;;;2.77;2.40;;;14.10;99.90;;;;;;4919163;29;20493;-67
2023/03/13 11:57:47;;;;;;;2.13;2.10;;;14.20;99.90;;;;;;4918317;29;20463;-67
2023/03/13 12:00:21;;;;;;;2.20;1.70;;;14.20;99.90;;;;;;4909594;29;20494;-69
2023/03/13 12:02:53;;;;;;;2.07;1.80;;;14.20;99.90;;;;;;4911135;29;20649;-68
2023/03/13 12:05:21;;;;;;;0.80;0.80;;;14.40;99.90;;;;;;4915981;29;20459;-69
2023/03/13 12:07:52;;;;;;;2.47;1.93;;;14.40;99.90;;;;;;4927771;29;21390;-68
2023/03/13 12:10:27;;;;;;;5.23;1.53;;;14.40;99.90;;;;;;4917157;29;20499;-68
2023/03/13 12:13:00;;;;;;;1.97;1.87;;;14.50;99.90;;;;;;4914340;29;20502;-68
2023/03/13 12:15:31;;;;;;;2.10;2.00;;;14.60;99.90;;;;;;4917226;29;20462;-69
2023/03/13 12:18:02;;;;;;;2.33;2.33;;;14.70;99.90;;;;;;4909148;29;20481;-69
2023/03/13 12:20:37;;;;;;;1.70;1.60;;;14.80;99.90;;;;;;4907227;29;20603;-68
2023/03/13 12:23:17;;;;;;;1.80;1.80;;;14.80;99.90;;;;;;4909796;29;20481;-68
2023/03/13 12:25:51;;;;;;;5.50;1.90;;;14.80;99.90;;;;;;4912422;29;20474;-68
2023/03/13 12:28:33;;;;;;;2.40;1.50;;;14.80;99.90;;;;;;4912388;29;20513;-68
2023/03/13 12:31:09;;;;;;;1.60;1.47;;;14.80;99.90;;;;;;4917498;29;20516;-67
2023/03/13 12:33:42;;;;;;;2.20;1.77;;;14.90;99.90;;;;;;4907054;29;20493;-67
2023/03/13 12:36:14;;;;;;;2.10;1.30;;;14.90;99.90;;;;;;4912275;29;20474;-68
2023/03/13 12:38:48;;;;;;;4.53;0.97;;;14.90;99.90;;;;;;4908749;29;20482;-68
2023/03/13 12:41:24;;;;;;;1.20;1.20;;;15.00;99.90;;;;;;4904586;29;20494;-68
2023/03/13 12:43:52;;;;;;;1.60;1.60;;;15.10;99.90;;;;;;4912107;29;20497;-68
2023/03/13 12:46:36;;;;;;;1.03;1.03;;;15.20;99.90;;;;;;4911591;29;20470;-68
2023/03/13 12:49:36;;;;;;;0.57;0.57;;;15.20;99.90;;;;;;4911654;29;20825;-67
2023/03/13 12:52:22;;;;;;;0.90;0.90;;;15.30;99.90;;;;;;4913159;29;20478;-67
2023/03/13 12:55:23;;;;;;;1.37;0.70;;;15.20;99.90;;;;;;4912493;29;20490;-68
2023/03/13 12:58:20;;;;;;;1.70;1.60;;;15.20;99.90;;;;;;4907138;29;20501;-68
2023/03/13 13:00:49;;;;;;;1.10;1.07;;;15.20;99.90;;;;;;4909999;29;20487;-67
2023/03/13 13:03:25;;;;;;;0.77;0.77;;;15.30;99.90;;;;;;4907381;29;20487;-71
2023/03/13 13:06:01;;;;;;;1.33;1.33;;;15.30;99.90;;;;;;4917448;29;20473;-67
2023/03/13 13:08:34;;;;;;;0.67;0.67;;;15.30;99.90;;;;;;4904217;29;20466;-68
2023/03/13 13:11:39;;;;;;;1.10;1.10;;;15.40;99.90;;;;;;4910773;29;20868;-68
2023/03/13 13:14:51;;;;;;;1.13;0.60;;;15.50;99.90;;;;;;4915028;29;20490;-67
2023/03/13 13:17:24;;;;;;;0.77;0.60;;;15.60;99.90;;;;;;4910108;29;20474;-67
2023/03/13 13:19:55;;;;;;;0.50;0.50;;;15.60;99.90;;;;;;4905110;29;20512;-68
2023/03/13 13:22:46;;;;;;;2.43;0.70;;;15.80;99.90;;;;;;4905881;29;20558;-68
2023/03/13 13:25:33;;;;;;;2.87;1.03;;;16.00;99.90;;;;;;4909255;29;20486;-68
2023/03/13 13:28:29;;;;;;;4.53;0.67;;;16.00;99.90;;;;;;4896793;29;20577;-68
2023/03/13 13:30:57;;;;;;;1.50;0.63;;;16.00;99.90;;;;;;4909705;29;20565;-67
2023/03/13 13:33:40;;;;;;;4.83;0.60;;;16.00;99.90;;;;;;4914576;29;20834;-67
2023/03/13 13:36:41;;;;;;;0.33;0.33;;;16.10;99.90;;;;;;4904208;29;20479;-67
2023/03/13 13:39:35;;;;;;;0.50;0.50;;;16.10;99.90;;;;;;4884075;29;20490;-67
2023/03/13 13:42:32;;;;;;;0.40;0.40;;;16.20;99.90;;;;;;4878594;29;21064;-68
2023/03/13 13:45:00;;;;;;;0.60;0.60;;;16.20;99.90;;;;;;4902936;29;20490;-67
2023/03/13 13:47:30;;;;;;;2.63;0.70;;;16.20;99.90;;;;;;4913571;29;20474;-67
2023/03/13 13:49:59;;;;;;;2.40;0.53;;;16.20;99.90;;;;;;4906689;29;20506;-68
2023/03/13 13:52:37;;;;;;;0.37;0.37;;;16.20;99.90;;;;;;4908850;29;20477;-68
2023/03/13 13:55:32;;;;;;;0.50;0.50;;;16.20;99.90;;;;;;4911324;29;20483;-69
2023/03/13 13:58:04;;;;;;;2.20;0.50;;;16.30;99.90;;;;;;4910389;29;20462;-69
2023/03/13 14:00:40;;;;;;;3.13;0.50;;;16.20;99.90;;;;;;4920980;29;20622;-68
2023/03/13 14:03:19;;;;;;;4.53;0.70;;;16.10;99.90;;;;;;4917183;29;20534;-68
2023/03/13 14:05:48;;;;;;;1.23;1.20;;;16.10;99.90;;;;;;4916273;29;20479;-68
2023/03/13 14:08:20;;;;;;;2.87;0.87;;;16.10;99.90;;;;;;4915499;29;20569;-67
2023/03/13 14:10:51;;;;;;;1.00;1.00;;;16.10;99.90;;;;;;4913456;29;20517;-68
2023/03/13 14:13:19;;;;;;;3.70;0.60;;;16.00;99.90;;;;;;4908652;29;20903;-68
2023/03/13 14:15:47;;;;;;;0.70;0.70;;;16.00;99.90;;;;;;4911993;29;20505;-68
2023/03/13 14:18:21;;;;;;;1.40;1.40;;;16.00;99.90;;;;;;4927913;29;20479;-68
2023/03/13 14:20:59;;;;;;;1.80;1.13;;;16.00;99.90;;;;;;4906565;29;20485;-68
2023/03/13 14:23:33;;;;;;;0.40;0.40;;;16.00;99.90;;;;;;4913612;29;20470;-68
2023/03/13 14:26:10;;;;;;;0.60;0.60;;;16.00;99.90;;;;;;4911101;29;20466;-68
2023/03/13 14:28:39;;;;;;;0.67;0.67;;;16.10;99.90;;;;;;4911609;29;20875;-66
2023/03/13 14:31:06;;;;;;;0.60;0.60;;;16.10;99.90;;;;;;4909348;29;20511;-67
2023/03/13 14:33:35;;;;;;;0.40;0.40;;;16.20;99.90;;;;;;4918507;29;20814;-67
2023/03/13 14:36:02;;;;;;;0.40;0.40;;;16.20;99.90;;;;;;4910407;29;20470;-68
2023/03/13 14:38:29;;;;;;;0.60;0.60;;;16.20;99.90;;;;;;4913167;29;20471;-68
2023/03/13 14:40:57;;;;;;;0.93;0.50;;;16.20;99.90;;;;;;4910244;29;20487;-68
2023/03/13 14:43:31;;;;;;;0.90;0.90;;;16.20;99.90;;;;;;4906670;29;20481;-69
2023/03/13 14:45:58;;;;;;;0.50;0.50;;;16.10;99.90;;;;;;4907506;29;20542;-68
2023/03/13 14:48:30;;;;;;;0.37;0.37;;;16.10;99.90;;;;;;4917753;29;20473;-68
2023/03/13 14:51:02;;;;;;;2.50;0.77;;;16.20;99.90;;;;;;4915230;29;21006;-68
2023/03/13 14:53:29;;;;;;;0.60;0.60;;;16.20;99.90;;;;;;4910212;29;20473;-68
2023/03/13 14:56:11;;;;;;;0.77;0.77;;;16.20;99.90;;;;;;4906147;29;20498;-68
2023/03/13 14:58:38;;;;;;;0.73;0.70;;;16.30;99.90;;;;;;4905874;29;20472;-68
2023/03/13 15:01:14;;;;;;;0.80;0.80;;;16.20;99.90;;;;;;4910391;29;20597;-68
2023/03/13 15:03:44;;;;;;;0.77;0.77;;;16.20;99.90;;;;;;4910806;29;20493;-68
2023/03/13 15:06:21;;;;;;;1.20;1.00;;;16.20;99.90;;;;;;4918619;29;20819;-68
2023/03/13 15:08:50;;;;;;;0.70;0.70;;;16.20;99.90;;;;;;4915657;29;20477;-68
2023/03/13 15:11:25;;;;;;;2.23;0.93;;;16.20;99.90;;;;;;4916299;29;20521;-68
2023/03/13 15:13:52;;;;;;;2.03;1.00;;;16.10;99.90;;;;;;4904023;29;20471;-68
2023/03/13 15:16:21;;;;;;;0.37;0.37;;;16.10;99.90;;;;;;4906649;29;20474;-68
2023/03/13 15:18:49;;;;;;;1.60;1.60;;;16.10;99.90;;;;;;4925473;29;20482;-68
2023/03/13 15:21:26;;;;;;;0.60;0.60;;;16.10;99.90;;;;;;4903816;29;20503;-68
2023/03/13 15:23:55;;;;;;;1.00;1.00;;;16.10;99.90;;;;;;4915254;29;20989;-68
2023/03/13 15:26:23;;;;;;;0.90;0.90;;;16.10;99.90;;;;;;4931150;29;20470;-68
2023/03/13 15:28:50;;;;;;;0.67;0.67;;;16.10;99.90;;;;;;4916456;29;20533;-68
2023/03/13 15:31:17;;;;;;;0.80;0.80;;;16.10;99.90;;;;;;4907366;29;20987;-68
2023/03/13 15:33:44;;;;;;;0.97;0.97;;;16.10;99.90;;;;;;4910508;29;20474;-68
2023/03/13 15:36:11;;;;;;;6.60;1.50;;;16.20;99.90;;;;;;4904786;29;20494;-68
2023/03/13 15:38:40;;;;;;;1.33;1.23;;;16.10;99.90;;;;;;4905080;29;20476;-68
2023/03/13 15:41:08;;;;;;;2.57;1.63;;;16.00;99.90;;;;;;4910729;29;20595;-68
2023/03/13 15:43:35;;;;;;;1.33;1.33;;;16.00;99.90;;;;;;4912316;29;20474;-68
2023/03/13 15:46:02;;;;;;;0.93;0.87;;;15.90;99.90;;;;;;4910533;29;20990;-68
2023/03/13 15:48:30;;;;;;;0.73;0.73;;;15.80;99.90;;;;;;4905868;29;20533;-68
2023/03/13 15:50:59;;;;;;;1.40;1.40;;;15.80;99.90;;;;;;4914261;29;20545;-68
2023/03/13 15:53:28;;;;;;;1.13;1.13;;;15.90;99.90;;;;;;4905050;29;20506;-68
2023/03/13 15:55:58;;;;;;;1.40;1.40;;;15.90;99.90;;;;;;4911036;29;20482;-68
2023/03/13 15:58:25;;;;;;;0.83;0.83;;;15.90;99.90;;;;;;4916048;29;20474;-68
2023/03/13 16:00:52;;;;;;;0.97;0.97;;;15.80;99.90;;;;;;4908606;29;21022;-68
2023/03/13 16:03:21;;;;;;;0.70;0.70;;;15.70;99.90;;;;;;4916643;29;20474;-68
2023/03/13 16:05:48;;;;;;;1.27;1.27;;;15.70;99.90;;;;;;4915080;29;20540;-68
2023/03/13 16:08:17;;;;;;;0.80;0.80;;;15.70;99.90;;;;;;4914854;29;20935;-67
2023/03/13 16:10:44;;;;;;;1.13;1.13;;;15.70;99.90;;;;;;4912180;29;20505;-67
2023/03/13 16:13:12;;;;;;;0.93;0.83;;;15.70;99.90;;;;;;4910148;29;20497;-68
2023/03/13 16:15:39;;;;;;;0.90;0.90;;;15.60;99.90;;;;;;4906905;29;20501;-69
2023/03/13 16:18:07;;;;;;;0.90;0.90;;;15.50;99.90;;;;;;4905874;29;20477;-68
2023/03/13 16:20:34;;;;;;;0.70;0.70;;;15.50;99.90;;;;;;4914318;29;20509;-68
2023/03/13 16:23:02;;;;;;;1.17;0.90;;;15.50;99.90;;;;;;4912422;29;20478;-68
2023/03/13 16:25:31;;;;;;;0.83;0.83;;;15.50;99.90;;;;;;4911111;29;20551;-67
2023/03/13 16:27:58;;;;;;;0.90;0.90;;;15.60;99.90;;;;;;4903628;29;21020;-67
2023/03/13 16:30:29;;;;;;;1.00;0.90;;;15.60;99.90;;;;;;4910715;29;20490;-67
2023/03/13 16:32:56;;;;;;;0.90;0.90;;;15.50;99.90;;;;;;4899586;29;20459;-67
2023/03/13 16:35:25;;;;;;;0.40;0.40;;;15.50;99.90;;;;;;4912465;29;20860;-66
2023/03/13 16:37:52;;;;;;;0.73;0.73;;;15.50;99.90;;;;;;4908534;29;20475;-67
2023/03/13 16:40:22;;;;;;;1.10;1.10;;;15.50;99.90;;;;;;4913629;29;20563;-67
2023/03/13 16:42:50;;;;;;;1.70;0.77;;;15.30;99.90;;;;;;4914744;29;20477;-67
2023/03/13 16:45:17;;;;;;;1.10;1.10;;;15.30;99.90;;;;;;4907357;29;20483;-67
2023/03/13 16:47:45;;;;;;;4.63;1.33;;;15.30;99.90;;;;;;4904554;29;20475;-67
2023/03/13 16:50:22;;;;;;;1.00;1.00;;;15.20;99.90;;;;;;4912950;29;20495;-67
2023/03/13 16:52:50;;;;;;;1.40;1.30;;;15.20;99.90;;;;;;4916425;29;20556;-67
2023/03/13 16:55:17;;;;;;;0.80;0.80;;;15.10;99.90;;;;;;4918867;29;20501;-67
2023/03/13 16:57:44;;;;;;;0.80;0.80;;;15.10;99.90;;;;;;4911316;29;20934;-67
2023/03/13 17:00:16;;;;;;;1.07;1.07;;;15.10;99.90;;;;;;4902718;29;20942;-67
2023/03/13 17:02:44;;;;;;;1.23;1.23;;;15.10;99.90;;;;;;4905632;29;20472;-67
2023/03/13 17:05:14;;;;;;;0.77;0.77;;;15.10;99.90;;;;;;4909017;29;20466;-69
2023/03/13 17:07:42;;;;;;;0.60;0.50;;;16.40;99.90;;;;;;4913495;29;20478;-68
2023/03/13 17:10:16;;;;;;;1.07;1.07;;;15.10;99.90;;;;;;4914248;29;20491;-67
2023/03/13 17:12:43;;;;;;;0.70;0.70;;;14.90;99.90;;;;;;4913697;29;20963;-67
2023/03/13 17:15:10;;;;;;;0.60;0.60;;;14.90;99.90;;;;;;4909964;29;20489;-67
2023/03/13 17:17:37;;;;;;;1.07;0.77;;;14.80;99.90;;;;;;4899645;29;20475;-67
2023/03/13 17:20:08;;;;;;;0.50;0.50;;;14.80;99.90;;;;;;4907526;29;20514;-67
2023/03/13 17:22:35;;;;;;;0.50;0.50;;;14.80;99.90;;;;;;4901519;29;20479;-67
2023/03/13 17:25:02;;;;;;;0.50;0.50;;;14.70;99.90;;;;;;4911122;29;20474;-66
2023/03/13 17:27:29;;;;;;;2.00;0.43;;;14.70;99.90;;;;;;4915534;29;20481;-67
2023/03/13 17:29:55;;;;;;;0.60;0.60;;;14.60;99.90;;;;;;4905185;29;20511;-68
2023/03/13 17:32:23;;;;;;;0.60;0.60;;;14.60;99.90;;;;;;4909014;29;20526;-68
2023/03/13 17:34:52;;;;;;;1.70;1.13;;;14.50;99.90;;;;;;4901633;29;20863;-68
2023/03/13 17:37:21;;;;;;;0.53;0.53;;;14.50;99.90;;;;;;4915425;29;20475;-67
2023/03/13 17:39:50;;;;;;;0.40;0.40;;;14.50;99.90;;;;;;4903341;29;20487;-67
2023/03/13 17:42:17;;;;;;;0.80;0.80;;;14.30;99.90;;;;;;4909245;29;20471;-67
2023/03/13 17:44:44;;;;;;;1.00;0.87;;;14.30;99.90;;;;;;4909186;29;20480;-67
2023/03/13 17:47:13;;;;;;;0.70;0.70;;;14.20;99.90;;;;;;4913911;29;20474;-67
2023/03/13 17:49:40;;;;;;;0.70;0.70;;;14.20;99.90;;;;;;4915197;29;20498;-67
2023/03/13 17:52:09;;;;;;;9.70;1.40;;;14.10;99.90;;;;;;4913459;29;20815;-67
2023/03/13 17:54:37;;;;;;;0.40;0.40;;;14.10;99.90;;;;;;4909131;29;20479;-66
2023/03/13 17:57:11;;;;;;;0.50;0.50;;;14.10;99.90;;;;;;4912825;29;20498;-67
2023/03/13 17:59:37;;;;;;;0.67;0.67;;;14.10;99.90;;;;;;4908969;29;20482;-67
2023/03/13 18:02:04;;;;;;;0.50;0.50;;;14.00;99.90;;;;;;4910351;29;20898;-67
2023/03/13 18:04:31;;;;;;;0.30;0.30;;;14.00;99.90;;;;;;4908927;29;20983;-67
2023/03/13 18:06:58;;;;;;;0.70;0.70;;;13.90;99.90;;;;;;4916485;29;20463;-67
2023/03/13 18:09:24;;;;;;;0.87;0.87;;;13.80;99.90;;;;;;4903888;29;20517;-67